createdAt,value
2022-08-26T00:00:21.313Z,98082.72
2022-08-26T00:03:04.605Z,98090.13
2022-08-26T00:05:35.883Z,98074.53
2022-08-26T00:08:05.577Z,98081.69
2022-08-26T00:10:33.886Z,98080.94
2022-08-26T00:13:02.092Z,98086.47
2022-08-26T00:15:31.907Z,98078.59
2022-08-26T00:18:00.610Z,98083.56
2022-08-26T00:20:31.650Z,98075.31
2022-08-26T00:23:00.321Z,98073.63
2022-08-26T00:25:28.824Z,98075.25
2022-08-26T00:27:57.652Z,98077.38
2022-08-26T00:30:29.333Z,98071.66
2022-08-26T00:33:00.576Z,98079.69
2022-08-26T00:35:30.789Z,98083.50
2022-08-26T00:38:02.695Z,98087.94
2022-08-26T00:40:35.545Z,98087.31
2022-08-26T00:43:07.133Z,98078.31
2022-08-26T00:45:42.135Z,98072.19
2022-08-26T00:48:13.162Z,98070.91
2022-08-26T00:50:49.368Z,98070.47
2022-08-26T00:53:25.996Z,98075.13
2022-08-26T00:56:00.340Z,98072.06
2022-08-26T00:58:31.330Z,98077.56
2022-08-26T01:00:59.767Z,98077.97
2022-08-26T01:03:30.632Z,98076.72
2022-08-26T01:06:00.082Z,98084.16
2022-08-26T01:08:28.995Z,98083.81
2022-08-26T01:10:58.578Z,98087.06
2022-08-26T01:13:28.816Z,98082.56
2022-08-26T01:15:59.070Z,98083.75
2022-08-26T01:18:29.638Z,98075.81
2022-08-26T01:21:03.432Z,98078.34
2022-08-26T01:23:35.628Z,98082.31
2022-08-26T01:26:06.838Z,98076.69
2022-08-26T01:28:36.314Z,98077.72
2022-08-26T01:31:06.844Z,98080.06
2022-08-26T01:33:42.051Z,98077.44
2022-08-26T01:36:12.392Z,98084.50
2022-08-26T01:38:42.556Z,98079.22
2022-08-26T01:41:16.118Z,98080.13
2022-08-26T01:43:49.635Z,98072.28
2022-08-26T01:46:18.669Z,98081.91
2022-08-26T01:48:49.464Z,98084.28
2022-08-26T01:51:23.825Z,98069.94
2022-08-26T01:53:53.444Z,98077.22
2022-08-26T01:56:22.943Z,98068.38
2022-08-26T01:58:54.013Z,98074.41
2022-08-26T02:01:22.909Z,98075.00
2022-08-26T02:04:00.704Z,98076.44
2022-08-26T02:06:28.945Z,98067.63
2022-08-26T02:09:02.653Z,98070.53
2022-08-26T02:11:30.818Z,98070.00
2022-08-26T02:14:02.949Z,98069.03
2022-08-26T02:16:35.837Z,98074.44
2022-08-26T02:19:06.043Z,98067.72
2022-08-26T02:21:36.565Z,98070.75
2022-08-26T02:24:14.545Z,98066.59
2022-08-26T02:26:43.663Z,98064.00
2022-08-26T02:29:17.751Z,98070.91
2022-08-26T02:31:46.129Z,98059.56
2022-08-26T02:34:16.651Z,98066.38
2022-08-26T02:36:44.676Z,98064.75
2022-08-26T02:39:19.548Z,98055.97
2022-08-26T02:41:50.926Z,98065.19
2022-08-26T02:44:19.398Z,98059.91
2022-08-26T02:46:47.631Z,98064.31
2022-08-26T02:49:16.992Z,98055.50
2022-08-26T02:51:45.917Z,98062.78
2022-08-26T02:54:15.703Z,98067.81
2022-08-26T02:56:44.461Z,98054.63
2022-08-26T02:59:13.633Z,98060.22
2022-08-26T03:01:42.667Z,98050.63
2022-08-26T03:04:12.931Z,98057.22
2022-08-26T03:06:42.333Z,98055.06
2022-08-26T03:09:14.028Z,98066.59
2022-08-26T03:11:48.582Z,98054.06
2022-08-26T03:14:17.408Z,98054.94
2022-08-26T03:16:48.530Z,98059.56
2022-08-26T03:19:17.614Z,98060.97
2022-08-26T03:21:47.501Z,98061.03
2022-08-26T03:24:17.708Z,98064.44
2022-08-26T03:26:52.088Z,98059.66
2022-08-26T03:29:40.376Z,98058.56
2022-08-26T03:32:09.039Z,98050.53
2022-08-26T03:34:37.311Z,98053.25
2022-08-26T03:37:07.132Z,98050.53
2022-08-26T03:39:37.030Z,98051.47
2022-08-26T03:42:06.850Z,98047.94
2022-08-26T03:44:37.403Z,98048.25
2022-08-26T03:47:10.589Z,98041.06
2022-08-26T03:49:38.975Z,98053.25
2022-08-26T03:52:07.443Z,98045.59
2022-08-26T03:54:36.135Z,98045.09
2022-08-26T03:57:04.353Z,98035.84
2022-08-26T03:59:33.826Z,98041.72
2022-08-26T04:02:03.717Z,98050.31
2022-08-26T04:04:39.951Z,98040.25
2022-08-26T04:07:08.725Z,98032.88
2022-08-26T04:09:37.058Z,98047.19
2022-08-26T04:12:06.536Z,98047.69
2022-08-26T04:14:37.748Z,98042.41
2022-08-26T04:17:08.534Z,98040.75
2022-08-26T04:19:36.838Z,98040.84
2022-08-26T04:22:04.879Z,98036.13
2022-08-26T04:24:33.176Z,98045.53
2022-08-26T04:27:03.485Z,98037.44
2022-08-26T04:29:31.767Z,98039.03
2022-08-26T04:32:01.301Z,98042.78
2022-08-26T04:34:33.092Z,98040.22
2022-08-26T04:37:01.987Z,98037.13
2022-08-26T04:39:30.783Z,98041.69
2022-08-26T04:42:00.130Z,98042.56
2022-08-26T04:44:31.134Z,98042.50
2022-08-26T04:46:59.706Z,98030.47
2022-08-26T04:49:27.943Z,98045.66
2022-08-26T04:52:05.756Z,98031.09
2022-08-26T04:54:34.004Z,98036.44
2022-08-26T04:57:02.619Z,98033.50
2022-08-26T04:59:31.122Z,98029.19
2022-08-26T05:01:59.747Z,98035.25
2022-08-26T05:04:28.217Z,98024.41
2022-08-26T05:07:02.577Z,98025.81
2022-08-26T05:09:32.649Z,98026.69
2022-08-26T05:12:01.068Z,98033.13
2022-08-26T05:14:29.283Z,98032.72
2022-08-26T05:16:57.497Z,98036.34
2022-08-26T05:19:27.969Z,98032.75
2022-08-26T05:21:56.226Z,98036.28
2022-08-26T05:24:24.622Z,98044.13
2022-08-26T05:26:54.482Z,98044.91
2022-08-26T05:29:25.130Z,98038.13
2022-08-26T05:31:54.080Z,98038.81
2022-08-26T05:34:25.763Z,98039.81
2022-08-26T05:36:58.463Z,98035.56
2022-08-26T05:39:26.588Z,98034.75
2022-08-26T05:41:56.117Z,98033.03
2022-08-26T05:44:24.657Z,98032.81
2022-08-26T05:46:53.050Z,98033.00
2022-08-26T05:49:22.535Z,98030.66
2022-08-26T05:51:54.961Z,98031.59
2022-08-26T05:54:23.029Z,98033.63
2022-08-26T05:56:51.990Z,98027.09
2022-08-26T05:59:24.323Z,98029.72
2022-08-26T06:01:53.406Z,98032.63
2022-08-26T06:04:23.154Z,98021.16
2022-08-26T06:06:54.966Z,98017.03
2022-08-26T06:09:23.459Z,98022.94
2022-08-26T06:11:52.246Z,98027.44
2022-08-26T06:14:23.264Z,98017.41
2022-08-26T06:16:51.673Z,98017.53
2022-08-26T06:19:21.689Z,98023.81
2022-08-26T06:21:54.859Z,98029.13
2022-08-26T06:24:41.232Z,98024.44
2022-08-26T06:27:13.761Z,98030.03
2022-08-26T06:29:43.683Z,98032.78
2022-08-26T06:32:11.824Z,98040.50
2022-08-26T06:34:40.046Z,98037.69
2022-08-26T06:37:09.046Z,98033.63
2022-08-26T06:39:41.171Z,98044.44
2022-08-26T06:42:10.922Z,98036.81
2022-08-26T06:44:41.113Z,98036.53
2022-08-26T06:47:10.792Z,98027.31
2022-08-26T06:49:39.837Z,98034.41
2022-08-26T06:52:08.013Z,98031.66
2022-08-26T06:54:37.158Z,98030.13
2022-08-26T06:57:07.504Z,98023.03
2022-08-26T06:59:35.597Z,98026.34
2022-08-26T07:02:04.094Z,98029.84
2022-08-26T07:04:35.891Z,98028.53
2022-08-26T07:07:04.079Z,98039.75
2022-08-26T07:09:33.277Z,98037.72
2022-08-26T07:12:02.554Z,98034.56
2022-08-26T07:14:31.819Z,98031.25
2022-08-26T07:17:01.540Z,98035.69
2022-08-26T07:19:31.616Z,98039.50
2022-08-26T07:22:04.226Z,98039.78
2022-08-26T07:24:33.553Z,98034.19
2022-08-26T07:27:05.590Z,98034.78
2022-08-26T07:29:34.664Z,98032.34
2022-08-26T07:32:03.966Z,98037.59
2022-08-26T07:34:33.450Z,98042.84
2022-08-26T07:37:03.663Z,98037.56
2022-08-26T07:39:32.861Z,98040.63
2022-08-26T07:42:01.669Z,98033.25
2022-08-26T07:44:36.361Z,98036.00
2022-08-26T07:47:24.556Z,98030.84
2022-08-26T07:49:53.016Z,98036.50
2022-08-26T07:52:26.633Z,98035.28
2022-08-26T07:54:56.318Z,98039.00
2022-08-26T07:57:24.806Z,98034.03
2022-08-26T07:59:54.021Z,98032.09
2022-08-26T08:02:24.668Z,98030.38
2022-08-26T08:04:53.412Z,98039.72
2022-08-26T08:07:38.550Z,98034.59
2022-08-26T08:10:13.709Z,98034.22
2022-08-26T08:12:42.526Z,98038.31
2022-08-26T08:15:13.823Z,98033.13
2022-08-26T08:17:43.489Z,98028.91
2022-08-26T08:20:12.476Z,98036.47
2022-08-26T08:22:42.547Z,98026.56
2022-08-26T08:25:12.451Z,98019.25
2022-08-26T08:27:42.222Z,98016.28
2022-08-26T08:30:13.795Z,98022.97
2022-08-26T08:32:43.695Z,98017.66
2022-08-26T08:35:13.479Z,98020.63
2022-08-26T08:37:43.772Z,98023.81
2022-08-26T08:40:12.322Z,98007.53
2022-08-26T08:42:46.902Z,98011.41
2022-08-26T08:45:19.213Z,98007.13
2022-08-26T08:47:50.496Z,98010.00
2022-08-26T08:50:23.431Z,97994.53
2022-08-26T08:53:00.464Z,97995.84
2022-08-26T08:55:37.762Z,97987.22
2022-08-26T08:58:09.243Z,97996.41
2022-08-26T09:00:45.007Z,97991.28
2022-08-26T09:03:24.656Z,97994.75
2022-08-26T09:05:53.726Z,97986.16
2022-08-26T09:08:29.747Z,97984.31
2022-08-26T09:11:00.511Z,97979.59
2022-08-26T09:13:29.297Z,97979.59
2022-08-26T09:16:08.382Z,97971.97
2022-08-26T09:18:49.537Z,97966.00
2022-08-26T09:21:20.750Z,97965.47
2022-08-26T09:23:54.133Z,97964.78
2022-08-26T09:26:29.080Z,97970.44
2022-08-26T09:29:00.156Z,97970.91
2022-08-26T09:31:30.783Z,97968.69
2022-08-26T09:34:17.897Z,97971.16
2022-08-26T09:36:49.702Z,97959.63
2022-08-26T09:39:31.932Z,97954.53
2022-08-26T09:42:22.452Z,97963.47
2022-08-26T09:44:56.593Z,97961.56
2022-08-26T09:47:30.286Z,97961.88
2022-08-26T09:50:04.835Z,97958.00
2022-08-26T09:52:38.485Z,97953.66
2022-08-26T09:55:14.805Z,97954.06
2022-08-26T09:57:49.671Z,97960.88
2022-08-26T10:00:42.026Z,97951.56
2022-08-26T10:03:12.485Z,97940.94
2022-08-26T10:05:48.606Z,97954.91
2022-08-26T10:08:25.676Z,97951.31
2022-08-26T10:10:57.665Z,97948.84
2022-08-26T10:13:32.967Z,97953.06
2022-08-26T10:16:10.634Z,97949.41
2022-08-26T10:18:42.217Z,97936.88
2022-08-26T10:21:13.110Z,97951.31
2022-08-26T10:23:43.439Z,97928.91
2022-08-26T10:26:17.944Z,97941.78
2022-08-26T10:28:50.650Z,97926.88
2022-08-26T10:31:27.848Z,97937.25
2022-08-26T10:33:59.997Z,97935.50
2022-08-26T10:37:14.525Z,97929.97
2022-08-26T10:39:43.208Z,97934.91
2022-08-26T10:42:18.726Z,97929.34
2022-08-26T10:44:47.292Z,97922.38
2022-08-26T10:47:19.639Z,97924.13
2022-08-26T10:49:48.826Z,97927.09
2022-08-26T10:52:23.486Z,97923.34
2022-08-26T10:55:03.161Z,97913.06
2022-08-26T10:57:41.425Z,97912.56
2022-08-26T11:00:27.698Z,97914.97
2022-08-26T11:03:00.603Z,97918.28
2022-08-26T11:05:29.382Z,97896.19
2022-08-26T11:08:29.551Z,97906.81
2022-08-26T11:10:59.938Z,97923.28
2022-08-26T11:14:06.109Z,97898.91
2022-08-26T11:16:42.886Z,97904.84
2022-08-26T11:19:14.080Z,97891.47
2022-08-26T11:22:06.232Z,97920.63
2022-08-26T11:25:01.644Z,97893.84
2022-08-26T11:28:04.111Z,97896.56
2022-08-26T11:30:47.696Z,97900.69
2022-08-26T11:33:58.194Z,97881.44
2022-08-26T11:37:04.138Z,97881.94
2022-08-26T11:39:36.733Z,97881.84
2022-08-26T11:42:20.102Z,97879.94
2022-08-26T11:44:49.853Z,97870.19
2022-08-26T11:47:28.709Z,97859.66
2022-08-26T11:50:15.810Z,97866.75
2022-08-26T11:52:52.883Z,97865.34
2022-08-26T11:55:23.255Z,97876.91
2022-08-26T11:57:53.970Z,97864.56
2022-08-26T12:00:25.114Z,97856.84
2022-08-26T12:02:55.739Z,97851.09
2022-08-26T12:05:30.828Z,97851.53
2022-08-26T12:08:04.268Z,97855.00
2022-08-26T12:10:35.644Z,97849.16
2022-08-26T12:13:05.472Z,97854.16
2022-08-26T12:15:35.796Z,97841.66
2022-08-26T12:18:28.899Z,97848.34
2022-08-26T12:21:00.873Z,97835.78
2022-08-26T12:23:41.912Z,97835.25
2022-08-26T12:26:15.543Z,97840.34
2022-08-26T12:28:45.675Z,97828.56
2022-08-26T12:31:22.653Z,97825.03
2022-08-26T12:33:53.236Z,97835.91
2022-08-26T12:36:25.566Z,97836.38
2022-08-26T12:38:58.004Z,97833.53
2022-08-26T12:41:39.898Z,97834.16
2022-08-26T12:44:08.413Z,97838.88
2022-08-26T12:46:36.493Z,97855.09
2022-08-26T12:49:06.172Z,97843.66
2022-08-26T12:51:42.046Z,97840.91
2022-08-26T12:54:16.059Z,97839.06
2022-08-26T12:56:44.567Z,97833.66
2022-08-26T12:59:23.419Z,97832.50
2022-08-26T13:01:52.692Z,97833.47
2022-08-26T13:04:37.583Z,97816.50
2022-08-26T13:07:23.229Z,97817.28
2022-08-26T13:09:53.253Z,97820.47
2022-08-26T13:12:27.371Z,97841.81
2022-08-26T13:14:56.190Z,97815.28
2022-08-26T13:17:24.545Z,97821.34
2022-08-26T13:19:54.411Z,97808.22
2022-08-26T13:22:25.090Z,97815.13
2022-08-26T13:24:55.549Z,97814.66
2022-08-26T13:27:26.411Z,97808.19
2022-08-26T13:29:55.721Z,97810.97
2022-08-26T13:32:27.515Z,97816.19
2022-08-26T13:34:58.879Z,97816.66
2022-08-26T13:37:34.397Z,97820.19
2022-08-26T13:40:04.984Z,97817.56
2022-08-26T13:42:33.181Z,97814.88
2022-08-26T13:45:03.033Z,97805.41
2022-08-26T13:47:31.619Z,97812.09
2022-08-26T13:50:01.118Z,97806.16
2022-08-26T13:52:30.661Z,97798.09
2022-08-26T13:55:00.459Z,97803.78
2022-08-26T13:57:30.398Z,97796.75
2022-08-26T14:00:00.150Z,97789.97
2022-08-26T14:02:29.222Z,97795.03
2022-08-26T14:04:57.404Z,97794.75
2022-08-26T14:07:26.943Z,97791.00
2022-08-26T14:09:55.325Z,97800.94
2022-08-26T14:12:23.653Z,97790.16
2022-08-26T14:14:52.136Z,97792.09
2022-08-26T14:17:22.202Z,97802.53
2022-08-26T14:19:51.421Z,97795.94
2022-08-26T14:22:22.420Z,97799.34
2022-08-26T14:24:52.158Z,97796.31
2022-08-26T14:27:20.367Z,97802.69
2022-08-26T14:29:48.555Z,97793.63
2022-08-26T14:32:23.226Z,97798.31
2022-08-26T14:34:52.115Z,97785.03
2022-08-26T14:37:20.839Z,97786.88
2022-08-26T14:39:49.191Z,97792.19
2022-08-26T14:42:22.532Z,97788.06
2022-08-26T14:44:54.505Z,97788.84
2022-08-26T14:47:22.607Z,97799.53
2022-08-26T14:49:50.744Z,97789.72
2022-08-26T14:52:19.412Z,97791.94
2022-08-26T14:54:46.572Z,97790.47
2022-08-26T14:57:15.134Z,97782.50
2022-08-26T14:59:49.665Z,97784.47
2022-08-26T15:02:32.594Z,97791.22
2022-08-26T15:05:02.555Z,97781.63
2022-08-26T15:07:30.952Z,97775.78
2022-08-26T15:09:59.179Z,97781.88
2022-08-26T15:12:28.166Z,97780.81
2022-08-26T15:14:57.684Z,97785.22
2022-08-26T15:17:26.309Z,97792.41
2022-08-26T15:19:54.626Z,97781.75
2022-08-26T15:22:22.860Z,97787.72
2022-08-26T15:24:51.831Z,97787.72
2022-08-26T15:27:22.183Z,97789.53
2022-08-26T15:29:50.279Z,97792.78
2022-08-26T15:32:19.898Z,97782.97
2022-08-26T15:34:49.994Z,97791.72
2022-08-26T15:37:18.349Z,97795.66
2022-08-26T15:39:46.626Z,97785.94
2022-08-26T15:42:15.118Z,97792.94
2022-08-26T15:44:44.805Z,97780.34
2022-08-26T15:47:13.805Z,97798.88
2022-08-26T15:49:43.716Z,97792.72
2022-08-26T15:52:11.896Z,97794.84
2022-08-26T15:54:41.003Z,97787.03
2022-08-26T15:57:11.463Z,97790.22
2022-08-26T15:59:40.780Z,97780.84
2022-08-26T16:02:09.227Z,97787.38
2022-08-26T16:04:37.618Z,97791.03
2022-08-26T16:07:07.176Z,97779.44
2022-08-26T16:09:35.262Z,97786.31
2022-08-26T16:12:04.059Z,97777.28
2022-08-26T16:14:32.341Z,97782.56
2022-08-26T16:17:00.522Z,97774.41
2022-08-26T16:19:28.866Z,97770.50
2022-08-26T16:21:57.158Z,97761.84
2022-08-26T16:24:30.384Z,97759.94
2022-08-26T16:26:59.145Z,97761.50
2022-08-26T16:29:27.626Z,97762.91
2022-08-26T16:31:55.873Z,97762.13
2022-08-26T16:34:24.334Z,97753.97
2022-08-26T16:36:52.546Z,97749.72
2022-08-26T16:39:20.750Z,97755.66
2022-08-26T16:41:50.505Z,97745.13
2022-08-26T16:44:19.235Z,97744.13
2022-08-26T16:46:47.368Z,97743.72
2022-08-26T16:49:16.166Z,97735.84
2022-08-26T16:51:44.489Z,97732.81
2022-08-26T16:54:12.815Z,97731.22
2022-08-26T16:56:41.487Z,97728.22
2022-08-26T16:59:12.254Z,97730.25
2022-08-26T17:01:40.514Z,97736.66
2022-08-26T17:04:09.181Z,97725.75
2022-08-26T17:06:38.303Z,97729.81
2022-08-26T17:09:06.936Z,97718.34
2022-08-26T17:11:35.466Z,97716.88
2022-08-26T17:14:03.624Z,97718.03
2022-08-26T17:16:33.555Z,97712.91
2022-08-26T17:19:02.622Z,97717.16
2022-08-26T17:21:30.918Z,97710.63
2022-08-26T17:23:59.428Z,97707.19
2022-08-26T17:26:27.866Z,97712.63
2022-08-26T17:28:56.148Z,97717.53
2022-08-26T17:31:24.831Z,97726.88
2022-08-26T17:33:55.632Z,97730.00
2022-08-26T17:36:28.056Z,97729.16
2022-08-26T17:38:57.988Z,97728.19
2022-08-26T17:41:26.259Z,97726.00
2022-08-26T17:43:54.671Z,97721.25
2022-08-26T17:46:23.364Z,97727.59
2022-08-26T17:48:51.523Z,97729.31
2022-08-26T17:51:21.078Z,97719.66
2022-08-26T17:53:49.800Z,97727.97
2022-08-26T17:56:23.970Z,97727.88
2022-08-26T17:58:52.710Z,97722.09
2022-08-26T18:01:21.318Z,97725.25
2022-08-26T18:03:50.035Z,97726.50
2022-08-26T18:06:18.393Z,97727.06
2022-08-26T18:08:48.337Z,97722.34
2022-08-26T18:11:18.293Z,97731.94
2022-08-26T18:13:47.763Z,97727.69
2022-08-26T18:16:17.865Z,97728.63
2022-08-26T18:18:46.588Z,97736.91
2022-08-26T18:21:17.117Z,97734.41
2022-08-26T18:23:47.875Z,97738.78
2022-08-26T18:26:20.685Z,97738.50
2022-08-26T18:28:48.732Z,97743.09
2022-08-26T18:31:16.942Z,97739.91
2022-08-26T18:33:45.745Z,97743.56
2022-08-26T18:36:19.624Z,97742.25
2022-08-26T18:38:50.750Z,97748.03
2022-08-26T18:41:20.779Z,97745.44
2022-08-26T18:43:50.616Z,97746.91
2022-08-26T18:46:22.086Z,97743.72
2022-08-26T18:48:50.967Z,97742.25
2022-08-26T18:51:20.994Z,97746.00
2022-08-26T18:53:51.114Z,97744.31
2022-08-26T18:56:19.906Z,97739.25
2022-08-26T18:58:48.196Z,97750.41
2022-08-26T19:01:17.328Z,97747.63
2022-08-26T19:03:46.724Z,97744.78
2022-08-26T19:06:16.491Z,97739.00
2022-08-26T19:08:44.955Z,97741.03
2022-08-26T19:11:14.922Z,97743.66
2022-08-26T19:13:43.691Z,97746.38
2022-08-26T19:16:16.660Z,97755.28
2022-08-26T19:18:45.310Z,97748.28
2022-08-26T19:21:13.973Z,97750.38
2022-08-26T19:23:42.260Z,97744.66
2022-08-26T19:26:11.343Z,97747.03
2022-08-26T19:28:41.341Z,97754.91
2022-08-26T19:31:10.989Z,97748.63
2022-08-26T19:33:39.629Z,97754.06
2022-08-26T19:36:12.648Z,97756.72
2022-08-26T19:38:43.023Z,97757.59
2022-08-26T19:41:13.213Z,97761.53
2022-08-26T19:43:43.107Z,97767.22
2022-08-26T19:46:17.461Z,97764.72
2022-08-26T19:48:45.803Z,97770.28
2022-08-26T19:51:15.787Z,97768.53
2022-08-26T19:53:44.751Z,97782.22
2022-08-26T19:56:13.484Z,97776.94
2022-08-26T19:58:43.530Z,97787.63
2022-08-26T20:01:12.533Z,97792.09
2022-08-26T20:03:41.432Z,97794.53
2022-08-26T20:06:11.041Z,97799.28
2022-08-26T20:08:40.355Z,97792.50
2022-08-26T20:11:12.006Z,97807.38
2022-08-26T20:13:41.034Z,97795.63
2022-08-26T20:16:12.247Z,97785.59
2022-08-26T20:18:58.889Z,97794.34
2022-08-26T20:21:27.498Z,97797.38
2022-08-26T20:23:58.425Z,97783.59
2022-08-26T20:26:28.030Z,97788.22
2022-08-26T20:28:56.619Z,97792.31
2022-08-26T20:31:26.616Z,97797.38
2022-08-26T20:33:55.776Z,97797.63
2022-08-26T20:36:26.931Z,97795.66
2022-08-26T20:38:55.557Z,97804.16
2022-08-26T20:41:25.490Z,97801.13
2022-08-26T20:43:53.946Z,97793.03
2022-08-26T20:46:24.852Z,97803.28
2022-08-26T20:48:55.610Z,97808.75
2022-08-26T20:51:28.974Z,97803.34
2022-08-26T20:53:57.396Z,97798.06
2022-08-26T20:56:25.678Z,97806.56
2022-08-26T20:58:55.860Z,97802.88
2022-08-26T21:01:26.516Z,97797.72
2022-08-26T21:03:57.382Z,97797.25
2022-08-26T21:06:25.846Z,97790.19
2022-08-26T21:08:54.926Z,97789.50
2022-08-26T21:11:23.282Z,97795.16
2022-08-26T21:14:15.998Z,97788.41
2022-08-26T21:16:41.262Z,97787.50
2022-08-26T21:19:12.970Z,97783.78
2022-08-26T21:21:42.001Z,97790.72
2022-08-26T21:24:10.776Z,97794.75
2022-08-26T21:26:39.066Z,97794.81
2022-08-26T21:29:09.925Z,97796.78
2022-08-26T21:31:43.523Z,97793.50
2022-08-26T21:34:17.556Z,97803.94
2022-08-26T21:36:46.255Z,97797.22
2022-08-26T21:39:15.009Z,97798.03
2022-08-26T21:41:44.409Z,97789.97
2022-08-26T21:44:13.696Z,97784.44
2022-08-26T21:46:41.987Z,97779.63
2022-08-26T21:49:13.208Z,97784.41
2022-08-26T21:51:44.280Z,97779.63
2022-08-26T21:54:12.891Z,97781.47
2022-08-26T21:56:44.366Z,97785.25
2022-08-26T21:59:13.046Z,97787.28
2022-08-26T22:01:41.687Z,97784.84
2022-08-26T22:04:10.746Z,97793.69
2022-08-26T22:06:43.572Z,97796.84
2022-08-26T22:09:12.806Z,97794.09
2022-08-26T22:11:41.127Z,97796.13
2022-08-26T22:14:09.698Z,97790.50
2022-08-26T22:16:38.462Z,97789.31
2022-08-26T22:19:06.775Z,97782.88
2022-08-26T22:21:35.846Z,97782.06
2022-08-26T22:24:08.644Z,97766.06
2022-08-26T22:26:36.872Z,97771.59
2022-08-26T22:29:06.457Z,97756.44
2022-08-26T22:31:37.978Z,97755.19
2022-08-26T22:34:08.732Z,97750.75
2022-08-26T22:36:43.191Z,97753.13
2022-08-26T22:39:14.643Z,97750.66
2022-08-26T22:41:43.379Z,97751.38
2022-08-26T22:44:12.117Z,97758.56
2022-08-26T22:46:41.484Z,97757.13
2022-08-26T22:49:10.189Z,97752.22
2022-08-26T22:51:38.582Z,97751.31
2022-08-26T22:54:07.785Z,97744.47
2022-08-26T22:56:38.050Z,97740.44
2022-08-26T22:59:06.877Z,97746.50
2022-08-26T23:01:37.387Z,97748.59
2022-08-26T23:04:07.433Z,97746.25
2022-08-26T23:06:36.964Z,97744.72
2022-08-26T23:09:06.199Z,97746.63
2022-08-26T23:11:34.439Z,97747.28
2022-08-26T23:14:05.089Z,97745.28
2022-08-26T23:16:40.928Z,97748.19
2022-08-26T23:19:09.464Z,97755.56
2022-08-26T23:21:37.959Z,97748.81
2022-08-26T23:24:06.835Z,97747.69
2022-08-26T23:26:35.242Z,97751.91
2022-08-26T23:29:06.424Z,97742.13
2022-08-26T23:31:34.856Z,97733.88
2022-08-26T23:34:20.500Z,97735.88
2022-08-26T23:36:48.998Z,97740.66
2022-08-26T23:39:17.333Z,97740.88
2022-08-26T23:41:45.857Z,97744.84
2022-08-26T23:44:15.628Z,97740.75
2022-08-26T23:46:44.382Z,97745.66
2022-08-26T23:49:12.535Z,97736.41
2022-08-26T23:51:58.651Z,97737.66
2022-08-26T23:54:26.807Z,97738.09
2022-08-26T23:56:55.246Z,97735.28
2022-08-26T23:59:24.846Z,97747.53
